Latest Weather Observations for Rabbit Flat

IDD60801

Issued at 11:31 pm CST Thursday 28 May 2015 (issued every 30 minutes, with the page automatically refreshed every 10 minutes)

About weather observations | Map of weather stations | Latest weather observations for NT | Other Formats
Station Details ID: 015666 Name: RABBIT FLAT Lat: -20.18 Lon: 130.01 Height: 340.0 m
Data from the previous 72 hours. | See also: Recent months at Rabbit Flat
Date/Time
CST
Temp
°C
App
Temp
°C
Dew
Point
Rel
Hum
%
Delta-T
°C
Wind Press
QNH
hPa
Press
MSL
hPa
Rain
since 9 am
mm
Dir
 
Spd
km/h
Gust
km/h
Spd
kts
Gust
kts
28/11:30pm 15.0 14.1 6.0 55 4.4 CALM 0 0 0 0 1017.7 - 0.0
28/11:00pm 15.6 14.9 6.8 56 4.4 CALM 0 0 0 0 1018.0 - 0.0
28/10:30pm 16.2 15.4 6.6 53 4.8 CALM 0 0 0 0 1017.8 - 0.0
28/10:00pm 17.4 16.7 6.9 50 5.3 CALM 0 0 0 0 1017.8 - 0.0
28/09:30pm 18.5 17.6 6.1 44 6.2 CALM 0 0 0 0 1017.6 - 0.0
28/09:00pm 20.2 19.6 7.3 43 6.7 CALM 0 0 0 0 1017.3 1016.2 0.0
28/08:30pm 21.3 20.7 7.3 40 7.3 CALM 0 0 0 0 1017.0 - 0.0
28/08:00pm 22.6 21.9 6.9 36 8.2 CALM 0 0 0 0 1016.6 - 0.0
28/07:30pm 23.3 22.6 6.9 34 8.6 CALM 0 0 0 0 1016.4 - 0.0
28/07:00pm 25.1 24.7 8.4 34 9.1 CALM 0 0 0 0 1016.1 - 0.0
28/06:30pm 26.7 26.5 9.1 33 9.8 CALM 0 0 0 0 1015.6 - 0.0
28/06:00pm 29.8 29.3 8.0 25 12.1 CALM 0 0 0 0 1015.3 1014.2 0.0
28/05:30pm 31.3 30.5 6.6 21 13.5 CALM 0 0 0 0 1014.9 - 0.0
28/05:00pm 32.0 31.0 5.4 19 14.3 CALM 0 0 0 0 1014.7 - 0.0
28/04:30pm 32.1 31.2 6.2 19 14.1 CALM 0 0 0 0 1014.6 - 0.0
28/04:00pm 32.6 31.9 6.9 20 14.2 CALM 0 0 0 0 1014.6 - 0.0
28/03:30pm 32.6 31.8 6.6 19 14.3 CALM 0 0 0 0 1014.7 - 0.0
28/03:00pm 32.6 31.8 6.3 19 14.4 CALM 0 0 0 0 1014.8 1013.7 0.0
28/02:30pm 32.5 31.5 5.4 18 14.6 CALM 0 0 0 0 1015.0 - 0.0
28/02:00pm 32.5 31.6 6.1 19 14.4 CALM 0 0 0 0 1015.3 - 0.0
28/01:30pm 32.4 31.7 6.8 20 14.1 CALM 0 0 0 0 1015.7 - 0.0
28/01:00pm 32.1 31.4 6.8 20 13.9 CALM 0 0 0 0 1016.1 - 0.0
28/12:30pm 31.5 31.0 7.8 23 13.2 CALM 0 0 0 0 1016.7 - 0.0
28/12:00pm 30.5 29.9 7.5 23 12.7 CALM 0 0 0 0 1017.1 1016.0 0.0
28/11:30am 29.9 29.3 7.3 24 12.4 CALM 0 0 0 0 1017.5 - 0.0
28/11:00am 29.5 28.8 7.1 24 12.2 CALM 0 0 0 0 1017.9 - 0.0
28/10:30am 28.2 27.7 7.7 27 11.2 CALM 0 0 0 0 1018.2 - 0.0
28/10:00am 26.6 26.1 7.8 30 10.2 CALM 0 0 0 0 1018.2 - 0.0
28/09:30am 22.7 22.0 6.8 35 8.3 CALM 0 0 0 0 1018.0 - 0.0
28/09:00am 20.3 19.7 7.2 42 6.8 CALM 0 0 0 0 1017.9 1016.8 0.0
28/08:30am 16.4 15.6 6.6 52 4.9 CALM 0 0 0 0 1017.7 - 0.0
28/08:00am 12.9 12.0 6.0 63 3.3 CALM 0 0 0 0 1017.4 - 0.0
28/07:30am 9.8 8.6 4.8 71 2.3 CALM 0 0 0 0 1017.1 - 0.0
28/07:00am 10.1 8.9 4.6 68 2.5 CALM 0 0 0 0 1016.9 - 0.0
28/06:30am 10.3 9.1 4.4 67 2.7 CALM 0 0 0 0 1016.6 - 0.0
28/06:00am 10.9 9.8 5.1 67 2.7 CALM 0 0 0 0 1016.4 1015.2 0.0
28/05:30am 10.8 9.6 4.7 66 2.8 CALM 0 0 0 0 1016.2 - 0.0
28/05:00am 10.7 9.5 4.8 67 2.7 CALM 0 0 0 0 1016.1 - 0.0
28/04:30am 11.0 9.8 4.7 65 2.9 CALM 0 0 0 0 1015.9 - 0.0
28/04:00am 11.7 10.5 4.8 62 3.2 CALM 0 0 0 0 1016.0 - 0.0
28/03:30am 11.8 10.5 4.2 59 3.5 CALM 0 0 0 0 1015.6 - 0.0
28/03:00am 12.2 11.0 4.7 60 3.5 CALM 0 0 0 0 1015.7 1014.6 0.0
28/02:30am 12.4 11.3 5.2 61 3.4 CALM 0 0 0 0 1016.0 - 0.0
28/02:00am 12.4 11.2 4.4 58 3.7 CALM 0 0 0 0 1016.1 - 0.0
28/01:30am 12.4 11.2 4.4 58 3.7 CALM 0 0 0 0 1016.3 - 0.0
28/01:00am 12.9 11.7 4.5 56 3.9 CALM 0 0 0 0 1016.5 - 0.0
28/12:30am 13.1 11.9 4.5 56 4.0 CALM 0 0 0 0 1016.7 - 0.0
28/12:00am 13.7 12.5 4.8 55 4.2 CALM 0 0 0 0 1016.9 1015.8 0.0
 
Date/Time
CST
Temp
°C
App
Temp
°C
Dew
Point
Rel
Hum
%
Delta-T
°C
Wind Press
QNH
hPa
Press
MSL
hPa
Rain
since 9 am
mm
Dir
 
Spd
km/h
Gust
km/h
Spd
kts
Gust
kts
27/11:30pm 14.8 13.6 4.4 49 4.9 CALM 0 0 0 0 1017.0 - 0.0
27/11:00pm 14.1 12.9 4.8 53 4.4 CALM 0 0 0 0 1017.0 - 0.0
27/10:30pm 15.0 13.8 4.4 49 5.0 CALM 0 0 0 0 1017.0 - 0.0
27/10:00pm 15.5 14.2 4.0 46 5.4 CALM 0 0 0 0 1017.0 - 0.0
27/09:30pm 16.0 14.7 3.9 44 5.7 CALM 0 0 0 0 1017.1 - 0.0
27/09:00pm 17.1 16.1 5.5 46 5.7 CALM 0 0 0 0 1016.8 1015.7 0.0
27/08:30pm 17.2 16.0 4.5 43 6.1 CALM 0 0 0 0 1016.5 - 0.0
27/08:00pm 19.0 18.2 6.3 43 6.4 CALM 0 0 0 0 1016.2 - 0.0
27/07:30pm 20.7 19.7 5.6 37 7.6 CALM 0 0 0 0 1015.6 - 0.0
27/07:00pm 22.7 21.8 6.0 34 8.6 CALM 0 0 0 0 1015.4 - 0.0
27/06:30pm 26.2 25.6 7.2 30 10.2 CALM 0 0 0 0 1015.1 - 0.0
27/06:00pm 29.6 28.7 6.1 22 12.6 CALM 0 0 0 0 1014.9 1013.8 0.0
27/05:30pm 31.0 29.7 4.0 18 14.1 CALM 0 0 0 0 1014.8 - 0.0
27/05:00pm 31.6 30.3 4.2 17 14.4 CALM 0 0 0 0 1014.6 - 0.0
27/04:30pm 31.9 30.5 3.8 17 14.7 CALM 0 0 0 0 1014.4 - 0.0
27/04:00pm 32.2 30.7 3.0 15 15.1 CALM 0 0 0 0 1014.3 - 0.0
27/03:30pm 32.3 30.9 3.6 16 15.0 CALM 0 0 0 0 1014.6 - 0.0
27/03:00pm 32.1 30.8 3.9 17 14.8 CALM 0 0 0 0 1014.7 1013.6 0.0
27/02:30pm 32.1 30.7 3.5 16 14.9 CALM 0 0 0 0 1015.0 - 0.0
27/02:00pm 32.2 30.8 3.4 16 15.0 CALM 0 2 0 1 1015.4 - 0.0
27/01:30pm 32.3 30.8 2.9 15 15.2 CALM 0 0 0 0 1016.0 - 0.0
27/01:00pm 31.6 30.3 4.2 17 14.4 CALM 0 0 0 0 1016.4 - 0.0
27/12:30pm 31.3 30.0 3.9 17 14.3 CALM 0 2 0 1 1017.0 - 0.0
27/12:00pm 31.1 26.1 4.5 18 14.0 NE 20 28 11 15 1017.5 1016.4 0.0
27/11:30am 30.6 29.3 4.2 18 13.8 CALM 0 0 0 0 1017.8 - 0.0
27/11:00am 29.6 28.1 4.8 20 13.0 ENE 2 22 1 12 1018.4 - 0.0
27/10:30am 28.5 27.4 5.0 22 12.3 CALM 0 0 0 0 1018.8 - 0.0
27/10:00am 26.6 25.4 4.6 24 11.3 CALM 0 0 0 0 1019.3 - 0.0
27/09:30am 24.2 23.4 6.4 32 9.3 CALM 0 0 0 0 1019.3 - 0.0
27/09:00am 20.8 20.1 7.1 41 7.1 CALM 0 0 0 0 1019.1 1018.0 0.0
27/08:30am 16.8 15.9 6.1 49 5.3 CALM 0 0 0 0 1019.0 - 0.0
27/08:00am 12.5 11.4 5.3 61 3.4 CALM 0 0 0 0 1018.7 - 0.0
27/07:30am 9.5 8.3 4.4 70 2.3 CALM 0 0 0 0 1018.4 - 0.0
27/07:00am 9.6 8.3 4.0 68 2.5 CALM 0 0 0 0 1018.3 - 0.0
27/06:30am 9.6 8.3 4.0 68 2.5 CALM 0 0 0 0 1018.0 - 0.0
27/06:00am 10.1 8.8 4.1 66 2.7 CALM 0 0 0 0 1018.0 1016.9 0.0
27/05:30am 10.1 8.8 3.9 65 2.8 CALM 0 0 0 0 1017.9 - 0.0
27/05:00am 10.7 9.5 4.8 67 2.7 CALM 0 0 0 0 1017.6 - 0.0
27/04:30am 10.9 9.7 4.6 65 2.9 CALM 0 0 0 0 1017.6 - 0.0
27/04:00am 11.1 9.9 4.6 64 3.0 CALM 0 7 0 4 1017.8 - 0.0
27/03:30am 11.5 10.3 4.6 62 3.2 CALM 0 0 0 0 1017.8 - 0.0
27/03:00am 11.9 10.7 4.5 60 3.4 CALM 0 0 0 0 1018.1 1017.0 0.0
27/02:30am 13.0 11.8 4.7 57 3.9 CALM 0 0 0 0 1018.3 - 0.0
27/02:00am 14.1 13.0 5.3 55 4.2 CALM 0 0 0 0 1018.7 - 0.0
27/01:30am 14.1 13.0 5.3 55 4.2 CALM 0 0 0 0 1019.0 - 0.0
27/01:00am 13.6 12.2 3.8 51 4.5 CALM 0 0 0 0 1019.0 - 0.0
27/12:30am 13.8 12.7 4.9 55 4.2 CALM 0 0 0 0 1019.1 - 0.0
27/12:00am 13.6 12.5 5.2 57 4.0 CALM 0 0 0 0 1019.6 1018.5 0.0
 
Date/Time
CST
Temp
°C
App
Temp
°C
Dew
Point
Rel
Hum
%
Delta-T
°C
Wind Press
QNH
hPa
Press
MSL
hPa
Rain
since 9 am
mm
Dir
 
Spd
km/h
Gust
km/h
Spd
kts
Gust
kts
26/11:30pm 14.0 12.8 4.6 53 4.4 CALM 0 0 0 0 1019.9 - 0.0
26/11:00pm 14.6 13.5 4.9 52 4.6 CALM 0 0 0 0 1020.0 - 0.0
26/10:30pm 15.1 13.8 4.0 47 5.2 CALM 0 0 0 0 1019.8 - 0.0
26/10:00pm 15.5 14.2 4.3 47 5.3 CALM 0 0 0 0 1019.6 - 0.0
26/09:30pm 16.1 15.1 5.4 49 5.2 CALM 0 0 0 0 1019.6 - 0.0
26/09:00pm 16.9 15.7 4.6 44 5.9 CALM 0 0 0 0 1019.5 1018.4 0.0
26/08:30pm 17.1 16.0 4.9 44 5.9 CALM 0 0 0 0 1019.3 - 0.0
26/08:00pm 17.9 16.8 5.0 42 6.3 CALM 0 0 0 0 1019.0 - 0.0
26/07:30pm 19.7 19.0 6.8 43 6.6 CALM 0 0 0 0 1018.5 - 0.0
26/07:00pm 22.2 21.4 6.6 36 8.1 CALM 0 0 0 0 1018.0 - 0.0
26/06:30pm 25.9 25.1 6.7 29 10.2 CALM 0 0 0 0 1017.6 - 0.0
26/06:00pm 28.5 27.6 6.2 24 11.9 CALM 0 0 0 0 1017.3 1016.2 0.0
26/05:30pm 30.0 28.7 4.3 19 13.4 CALM 0 0 0 0 1017.2 - 0.0
26/05:00pm 30.5 29.1 3.6 18 13.9 CALM 0 0 0 0 1017.1 - 0.0
26/04:30pm 30.7 29.1 2.6 16 14.3 CALM 0 0 0 0 1017.0 - 0.0
26/04:00pm 31.4 29.7 1.9 15 14.9 CALM 0 0 0 0 1017.1 - 0.0
26/03:30pm 31.1 29.5 2.4 16 14.6 CALM 0 0 0 0 1017.1 - 0.0
26/03:00pm 31.3 29.6 2.1 15 14.8 CALM 0 0 0 0 1017.4 1016.3 0.0
26/02:30pm 31.4 29.8 2.3 15 14.8 CALM 0 0 0 0 1017.6 - 0.0
26/02:00pm 31.1 29.7 3.5 17 14.3 CALM 0 0 0 0 1018.1 - 0.0
26/01:30pm 30.3 29.0 4.2 19 13.6 CALM 0 0 0 0 1018.7 - 0.0
26/01:00pm 29.8 28.5 3.9 19 13.4 CALM 0 0 0 0 1019.4 - 0.0
26/12:30pm 29.7 28.3 3.3 18 13.5 CALM 0 0 0 0 1019.9 - 0.0
26/12:00pm 28.7 22.9 2.2 18 13.2 NE 22 30 12 16 1020.5 1019.4 0.0
26/11:30am 28.5 27.0 2.9 19 12.9 CALM 0 0 0 0 1021.0 - 0.0
26/11:00am 27.1 25.4 2.1 20 12.3 CALM 0 0 0 0 1021.3 - 0.0
26/10:30am 26.4 24.9 2.8 21 11.7 CALM 0 0 0 0 1021.6 - 0.0
26/10:00am 25.4 23.9 2.9 23 11.1 CALM 0 0 0 0 1021.6 - 0.0
26/09:30am 23.9 22.4 3.1 25 10.2 CALM 0 0 0 0 1021.6 - 0.0
26/09:00am 21.3 19.7 2.3 28 9.0 CALM 0 0 0 0 1021.4 1020.3 0.0
26/08:30am 17.8 16.1 1.8 34 7.3 CALM 0 0 0 0 1021.0 - 0.0
26/08:00am 13.3 11.5 1.4 44 5.2 CALM 0 0 0 0 1021.0 - 0.0
26/07:30am 8.9 7.2 1.8 61 3.0 CALM 0 0 0 0 1020.9 - 0.0
26/07:00am 8.9 7.1 1.5 60 3.1 CALM 0 0 0 0 1020.5 - 0.0
26/06:30am 9.2 7.5 1.9 60 3.1 CALM 0 0 0 0 1020.4 - 0.0
26/06:00am 9.4 7.6 1.3 57 3.4 CALM 0 0 0 0 1020.2 1019.1 0.0
26/05:30am 10.6 8.8 1.4 53 3.9 CALM 0 0 0 0 1019.8 - 0.0
26/05:00am 12.4 10.7 1.9 48 4.6 CALM 0 0 0 0 1019.8 - 0.0
26/04:30am 13.9 12.2 1.6 43 5.4 CALM 0 0 0 0 1019.9 - 0.0
26/04:00am 13.9 12.1 1.3 42 5.5 CALM 0 0 0 0 1020.1 - 0.0
26/03:30am 14.7 13.0 1.9 42 5.7 CALM 0 0 0 0 1020.2 - 0.0
26/03:00am 14.8 12.9 0.5 37 6.2 CALM 0 0 0 0 1020.2 1019.1 0.0
26/02:30am 12.9 11.2 2.0 47 4.8 CALM 0 0 0 0 1020.2 - 0.0
26/02:00am 12.3 10.6 2.0 49 4.5 CALM 0 0 0 0 1020.3 - 0.0
26/01:30am 12.3 10.5 1.4 47 4.7 CALM 0 0 0 0 1020.5 - 0.0
26/01:00am 12.7 10.9 1.1 45 5.0 CALM 0 0 0 0 1020.6 - 0.0
26/12:30am 13.4 11.6 1.5 44 5.2 CALM 0 0 0 0 1020.5 - 0.0
26/12:00am 15.6 13.9 1.8 39 6.2 CALM 0 0 0 0 1020.7 1019.6 0.0

Other Formats:

Comma delimited format used in spreadsheet applications
http://www.bom.gov.au/fwo/IDD60801/IDD60801.95322.axf

JavaScript Object Notation format (JSON) in row-major order
http://www.bom.gov.au/fwo/IDD60801/IDD60801.95322.json